Jerozolima, Izrael

06:13 IDT dnia 29-sierpień-2014 (GMT +0300)
Nayot | Change Station
CLOSE
Current Station
Stacja PWS
Location: Jerusalem, Israel
n.p.m.: 2415 ft
Najbliższa stacja pogodowa

Wysokość 2415 ft 31.77 °N, 35.20 °E | Updated 7 seconds ago

Haze
zamglenie
67.5 ° F
Odczuwalna 67.5 ° F
Płn.
0.0
Wiatr zmienny Wiatr od zachodni
Gusts 1.0 mph

Dziś
Wysoka -- | Niska -- ° F
--% Prawdop. opadów
Wczoraj
Wysoka -- | Niska -- ° F
Precip. -- cali
6:12 AM 7:07 PM
Powiększający się sierp Księżyca, 11% visible
Ciśnienie 29.86 cali
Widzialność 3.1 mil
chmury
Punkt rosy 64 ° F
Wilgotność 89%
Opady deszczu 0.00 cali
grubość pokrywy śnieżnej Niedostępne.
UV 0.0 z 12
Pyłki Niedostępne.
Jakość powietrza Niedostępne.
Flu Activity Niedostępne.
METAR OJAM 290300Z 34006KT 5000 HZ 20/16 Q1011 NOSIG

More Conditions Fewer Conditions

Ciśnienie 29.86 cali
Widzialność 3.1 mil
chmury
Punkt rosy 64 ° F
Wilgotność 89%
Opady deszczu 0.00 cali
grubość pokrywy śnieżnej Niedostępne.
UV 0.0 z 12
Pyłki Niedostępne.
Jakość powietrza Niedostępne.
Flu Activity Niedostępne.
METAR OJAM 290300Z 34006KT 5000 HZ 20/16 Q1011 NOSIG

More Conditions Fewer Conditions

10-Day Weather Forecast

Almanac

Astronomia

Aug. 29, 2014 Wschód Zachów
Aktualny czas 06:12 IDT 19:07 IDT
Zmierzch cywilny 05:47 IDT 19:32 IDT
Zmierzch żeglarski 05:17 IDT 20:01 IDT
świt/zmierzch astronomiczny 04:47 IDT 20:31 IDT
Księżyc 09:27 IDT 21:09 IDT
całkowite oświetlenie 13h 44m
Długość dnia
12h 54m
Tomorrow will be 1m 50s shorter.
Powiększający się sierp Księżyca, 11% of the Moon is Illuminated
Sierpień 28
Powiększający się sierp Księżyca
Wrzesień 2
Pierwsza kwadra
Wrzesień 8
Pełnia Księżyca
Wrzesień 15
Ostatnia kwadra
Wrzesień 24
Nowy

Wczorajsze ekstrema

Country Highs Country Lows

Community

WunderPhotos

Upload Photos

1,748,146 zdjęcia zostały przesłane!

Nearby

Jakość powietrza

Not available.

Głębokość pokrywy śnieżnej

Not available.

Aktywność sejsmiczna

Miejscowość Distance Mag. Time & Date
No recent earthquake activity has been reported nearby.
Minimum magnitude displayed is 2.5.

Temperatury wody na wybrzeżu

Miejsce Temperatura
Nie znaleziono stacji

Najbliższa stacja pogodowa